createdAt,value
2022-08-05T00:02:25.694Z,1.83
2022-08-05T00:06:05.446Z,1.90
2022-08-05T00:08:51.409Z,2.12
2022-08-05T00:11:59.782Z,2.03
2022-08-05T00:15:54.225Z,2.10
2022-08-05T00:18:25.454Z,2.10
2022-08-05T00:21:31.461Z,2.00
2022-08-05T00:24:42.366Z,2.47
2022-08-05T00:27:45.235Z,2.55
2022-08-05T00:30:52.109Z,2.80
2022-08-05T00:34:56.057Z,3.22
2022-08-05T00:37:19.199Z,3.28
2022-08-05T00:40:28.142Z,3.33
2022-08-05T00:43:47.302Z,3.10
2022-08-05T00:46:54.298Z,3.55
2022-08-05T00:50:08.458Z,3.00
2022-08-05T00:53:45.154Z,2.85
2022-08-05T00:56:34.361Z,3.15
2022-08-05T00:59:44.334Z,3.22
2022-08-05T01:02:47.595Z,3.10
2022-08-05T01:05:54.864Z,3.15
2022-08-05T01:08:57.876Z,3.45
2022-08-05T01:12:18.114Z,2.72
2022-08-05T01:15:36.264Z,3.20
2022-08-05T01:18:43.519Z,3.25
2022-08-05T01:21:51.613Z,2.95
2022-08-05T01:25:11.070Z,2.90
2022-08-05T01:28:27.196Z,2.95
2022-08-05T01:31:44.662Z,3.17
2022-08-05T01:34:59.200Z,3.33
2022-08-05T01:38:04.310Z,2.85
2022-08-05T01:41:08.891Z,3.33
2022-08-05T01:44:14.145Z,3.15
2022-08-05T01:47:21.262Z,2.90
2022-08-05T01:50:50.974Z,3.22
2022-08-05T01:53:58.654Z,2.70
2022-08-05T01:58:11.868Z,2.80
2022-08-05T02:00:31.621Z,2.60
2022-08-05T02:03:38.227Z,3.00
2022-08-05T02:06:42.661Z,3.20
2022-08-05T02:09:48.194Z,3.08
2022-08-05T02:13:15.884Z,2.92
2022-08-05T02:16:52.434Z,2.70
2022-08-05T02:20:01.759Z,3.17
2022-08-05T02:23:09.561Z,2.77
2022-08-05T02:26:17.236Z,2.95
2022-08-05T02:29:24.291Z,2.85
2022-08-05T02:32:51.257Z,3.30
2022-08-05T02:35:59.135Z,3.45
2022-08-05T02:42:11.989Z,2.97
2022-08-05T02:45:52.033Z,2.92
2022-08-05T02:48:55.291Z,2.97
2022-08-05T02:52:03.917Z,3.10
2022-08-05T02:55:10.662Z,3.12
2022-08-05T02:58:16.133Z,3.87
2022-08-05T03:01:21.635Z,3.08
2022-08-05T03:04:25.669Z,3.25
2022-08-05T03:07:59.322Z,3.08
2022-08-05T03:11:53.288Z,3.17
2022-08-05T03:14:14.446Z,2.97
2022-08-05T03:17:17.522Z,2.90
2022-08-05T03:20:24.505Z,3.10
2022-08-05T03:23:28.281Z,3.12
2022-08-05T03:26:32.782Z,3.03
2022-08-05T03:29:45.972Z,3.12
2022-08-05T03:33:00.095Z,3.00
2022-08-05T03:36:03.972Z,2.90
2022-08-05T03:39:20.183Z,2.95
2022-08-05T03:42:31.958Z,3.45
2022-08-05T03:45:57.754Z,3.33
2022-08-05T03:48:58.949Z,3.33
2022-08-05T03:52:48.658Z,3.17
2022-08-05T03:56:09.629Z,2.92
2022-08-05T03:59:02.962Z,3.40
2022-08-05T04:02:06.492Z,2.97
2022-08-05T04:05:10.781Z,3.03
2022-08-05T04:08:34.982Z,3.35
2022-08-05T04:11:47.239Z,3.22
2022-08-05T04:14:54.252Z,3.15
2022-08-05T04:18:06.805Z,3.30
2022-08-05T04:21:11.134Z,3.17
2022-08-05T04:24:19.162Z,3.42
2022-08-05T04:27:41.633Z,3.45
2022-08-05T04:30:47.186Z,3.10
2022-08-05T04:34:17.928Z,3.50
2022-08-05T04:37:13.507Z,3.62
2022-08-05T04:40:19.658Z,3.30
2022-08-05T04:43:22.604Z,3.33
2022-08-05T04:46:28.756Z,3.37
2022-08-05T04:49:38.807Z,3.30
2022-08-05T04:52:54.082Z,3.47
2022-08-05T04:56:34.017Z,3.30
2022-08-05T04:59:21.755Z,3.60
2022-08-05T05:02:36.795Z,3.50
2022-08-05T05:06:40.779Z,3.60
2022-08-05T05:09:05.509Z,3.35
2022-08-05T05:12:08.630Z,3.17
2022-08-05T05:15:11.617Z,3.22
2022-08-05T05:18:31.234Z,3.28
2022-08-05T05:21:36.441Z,2.95
2022-08-05T05:24:58.186Z,3.42
2022-08-05T05:28:02.201Z,3.00
2022-08-05T05:31:05.660Z,2.90
2022-08-05T05:34:11.670Z,3.05
2022-08-05T05:37:15.160Z,2.87
2022-08-05T05:40:20.379Z,2.50
2022-08-05T05:43:58.200Z,2.80
2022-08-05T05:46:51.557Z,2.70
2022-08-05T05:50:01.290Z,2.58
2022-08-05T05:53:20.866Z,2.72
2022-08-05T05:56:33.306Z,2.75
2022-08-05T05:59:40.119Z,2.72
2022-08-05T06:02:43.814Z,2.58
2022-08-05T06:05:54.187Z,2.87
2022-08-05T06:08:58.721Z,2.72
2022-08-05T06:12:02.731Z,2.97
2022-08-05T06:15:08.063Z,2.70
2022-08-05T06:18:11.129Z,3.92
2022-08-05T06:21:16.632Z,2.90
2022-08-05T06:24:25.722Z,3.10
2022-08-05T06:28:11.283Z,2.95
2022-08-05T06:30:52.678Z,2.70
2022-08-05T06:34:06.985Z,2.47
2022-08-05T06:37:11.720Z,2.70
2022-08-05T06:40:21.082Z,2.53
2022-08-05T06:43:57.478Z,3.00
2022-08-05T06:46:46.983Z,2.72
2022-08-05T06:50:00.165Z,2.50
2022-08-05T06:53:11.705Z,2.60
2022-08-05T06:56:27.148Z,2.65
2022-08-05T06:59:29.831Z,2.35
2022-08-05T07:02:47.429Z,2.00
2022-08-05T07:05:56.424Z,1.87
2022-08-05T07:09:04.016Z,2.10
2022-08-05T07:12:07.630Z,2.10
2022-08-05T07:15:34.799Z,2.00
2022-08-05T07:18:52.443Z,1.80
2022-08-05T07:22:00.920Z,1.80
2022-08-05T07:25:22.416Z,1.60
2022-08-05T07:28:29.754Z,1.87
2022-08-05T07:31:54.065Z,1.40
2022-08-05T07:34:57.801Z,2.05
2022-08-05T07:38:04.176Z,1.40
2022-08-05T07:42:08.331Z,1.48
2022-08-05T07:44:32.723Z,1.48
2022-08-05T07:47:42.621Z,1.30
2022-08-05T07:50:45.473Z,1.30
2022-08-05T07:53:50.507Z,2.15
2022-08-05T07:57:14.844Z,1.55
2022-08-05T08:00:17.576Z,1.70
2022-08-05T08:03:21.556Z,1.60
2022-08-05T08:06:28.100Z,1.40
2022-08-05T08:09:31.334Z,1.30
2022-08-05T08:12:48.669Z,1.40
2022-08-05T08:16:35.473Z,1.60
2022-08-05T08:19:37.912Z,1.45
2022-08-05T08:22:38.124Z,1.60
2022-08-05T08:25:59.810Z,1.62
2022-08-05T08:29:45.465Z,1.50
2022-08-05T08:32:28.200Z,1.40
2022-08-05T08:35:35.239Z,1.30
2022-08-05T08:38:44.179Z,1.58
2022-08-05T08:41:59.813Z,1.50
2022-08-05T08:45:23.751Z,1.60
2022-08-05T08:49:03.308Z,1.60
2022-08-05T08:52:14.240Z,1.52
2022-08-05T08:55:19.334Z,1.67
2022-08-05T08:58:44.626Z,1.60
2022-08-05T09:01:57.345Z,1.90
2022-08-05T09:05:17.798Z,1.87
2022-08-05T09:08:26.592Z,1.50
2022-08-05T09:11:50.685Z,1.73
2022-08-05T09:14:59.434Z,1.62
2022-08-05T09:18:10.216Z,1.60
2022-08-05T09:24:38.738Z,1.42
2022-08-05T09:28:05.497Z,1.80
2022-08-05T09:31:44.110Z,1.62
2022-08-05T09:34:46.581Z,1.62
2022-08-05T09:38:16.536Z,1.60
2022-08-05T09:41:16.080Z,1.60
2022-08-05T09:44:40.023Z,1.70
2022-08-05T09:47:49.018Z,1.85
2022-08-05T09:51:15.282Z,1.57
2022-08-05T09:54:31.639Z,1.40
2022-08-05T09:57:35.361Z,1.58
2022-08-05T10:00:53.439Z,1.45
2022-08-05T10:04:16.022Z,1.98
2022-08-05T10:08:10.756Z,1.50
2022-08-05T10:10:44.300Z,1.70
2022-08-05T10:13:49.222Z,1.60
2022-08-05T10:16:56.194Z,1.67
2022-08-05T10:20:04.518Z,1.67
2022-08-05T10:23:55.418Z,1.73
2022-08-05T10:26:52.808Z,1.62
2022-08-05T10:33:18.416Z,1.55
2022-08-05T10:36:23.581Z,1.90
2022-08-05T10:43:00.863Z,1.48
2022-08-05T10:46:08.983Z,1.85
2022-08-05T10:49:16.776Z,1.70
2022-08-05T10:52:49.832Z,1.70
2022-08-05T10:56:14.529Z,1.58
2022-08-05T11:00:02.484Z,1.87
2022-08-05T11:03:22.821Z,1.90
2022-08-05T11:06:30.816Z,1.60
2022-08-05T11:09:46.206Z,1.43
2022-08-05T11:12:54.385Z,1.52
2022-08-05T11:16:21.635Z,1.85
2022-08-05T11:20:11.015Z,1.70
2022-08-05T11:22:53.986Z,1.33
2022-08-05T11:26:09.346Z,1.98
2022-08-05T11:29:37.616Z,1.83
2022-08-05T11:32:40.168Z,1.48
2022-08-05T11:36:08.170Z,1.50
2022-08-05T11:39:14.740Z,1.73
2022-08-05T11:42:24.188Z,1.80
2022-08-05T11:46:27.419Z,1.55
2022-08-05T11:48:54.507Z,1.55
2022-08-05T11:51:57.914Z,1.75
2022-08-05T11:55:07.409Z,1.50
2022-08-05T11:58:12.003Z,1.70
2022-08-05T12:01:19.111Z,1.62
2022-08-05T12:04:23.156Z,1.67
2022-08-05T12:08:10.329Z,1.70
2022-08-05T12:11:03.424Z,1.70
2022-08-05T12:14:10.296Z,1.60
2022-08-05T12:18:02.774Z,1.60
2022-08-05T12:20:38.914Z,1.67
2022-08-05T12:24:11.489Z,1.80
2022-08-05T12:27:32.758Z,2.12
2022-08-05T12:30:38.723Z,1.70
2022-08-05T12:33:50.704Z,1.58
2022-08-05T12:36:58.758Z,1.62
2022-08-05T12:40:03.118Z,1.60
2022-08-05T12:43:07.715Z,1.73
2022-08-05T12:46:28.074Z,1.80
2022-08-05T12:50:03.315Z,1.62
2022-08-05T12:53:16.530Z,2.20
2022-08-05T12:56:34.138Z,1.60
2022-08-05T13:00:09.076Z,1.67
2022-08-05T13:03:13.639Z,1.67
2022-08-05T13:06:18.125Z,1.80
2022-08-05T13:09:28.326Z,1.70
2022-08-05T13:12:31.470Z,1.77
2022-08-05T13:15:41.449Z,1.70
2022-08-05T13:18:58.818Z,1.70
2022-08-05T13:22:01.937Z,1.33
2022-08-05T13:25:18.740Z,1.60
2022-08-05T13:28:22.572Z,1.52
2022-08-05T13:31:34.018Z,1.60
2022-08-05T13:34:50.154Z,1.50
2022-08-05T13:37:55.336Z,1.48
2022-08-05T13:41:00.516Z,1.50
2022-08-05T13:44:03.549Z,1.52
2022-08-05T13:47:09.083Z,1.40
2022-08-05T13:50:16.477Z,1.50
2022-08-05T13:53:19.796Z,1.80
2022-08-05T13:56:22.603Z,1.58
2022-08-05T13:59:27.029Z,1.67
2022-08-05T14:02:31.342Z,1.70
2022-08-05T14:06:04.749Z,1.55
2022-08-05T14:08:59.484Z,1.45
2022-08-05T14:12:17.766Z,1.52
2022-08-05T14:16:05.294Z,1.55
2022-08-05T14:18:43.747Z,2.10
2022-08-05T14:22:08.775Z,1.92
2022-08-05T14:25:21.858Z,1.60
2022-08-05T14:28:27.021Z,1.70
2022-08-05T14:31:54.241Z,1.80
2022-08-05T14:34:54.707Z,1.83
2022-08-05T14:38:01.107Z,1.45
2022-08-05T14:41:07.454Z,1.85
2022-08-05T14:44:20.733Z,1.77
2022-08-05T14:48:02.614Z,1.83
2022-08-05T14:50:47.889Z,1.70
2022-08-05T14:54:28.681Z,1.62
2022-08-05T14:57:15.078Z,2.33
2022-08-05T15:00:20.027Z,1.65
2022-08-05T15:03:22.972Z,1.52
2022-08-05T15:06:27.943Z,1.60
2022-08-05T15:09:51.224Z,1.63
2022-08-05T15:13:01.121Z,1.60
2022-08-05T15:16:06.691Z,1.95
2022-08-05T15:19:23.192Z,1.73
2022-08-05T15:22:28.106Z,1.70
2022-08-05T15:25:41.070Z,1.70
2022-08-05T15:28:53.946Z,1.60
2022-08-05T15:31:56.482Z,1.60
2022-08-05T15:34:59.359Z,1.70
2022-08-05T15:38:34.811Z,1.60
2022-08-05T15:41:56.387Z,1.62
2022-08-05T15:44:54.832Z,2.08
2022-08-05T15:47:57.744Z,1.75
2022-08-05T15:51:05.608Z,2.33
2022-08-05T15:54:09.061Z,1.65
2022-08-05T15:57:19.777Z,1.80
2022-08-05T16:00:26.525Z,1.85
2022-08-05T16:03:33.971Z,2.17
2022-08-05T16:06:36.926Z,1.70
2022-08-05T16:09:41.741Z,1.80
2022-08-05T16:12:44.477Z,1.60
2022-08-05T16:15:47.609Z,1.87
2022-08-05T16:18:51.921Z,1.75
2022-08-05T16:22:00.854Z,2.12
2022-08-05T16:25:09.417Z,1.77
2022-08-05T16:28:14.148Z,1.70
2022-08-05T16:31:18.321Z,2.20
2022-08-05T16:34:22.881Z,2.62
2022-08-05T16:38:03.119Z,1.90
2022-08-05T16:40:55.730Z,1.60
2022-08-05T16:44:06.468Z,1.73
2022-08-05T16:47:28.609Z,1.83
2022-08-05T16:50:32.175Z,1.77
2022-08-05T16:54:05.728Z,1.50
2022-08-05T16:57:53.077Z,1.58
2022-08-05T17:00:52.362Z,1.92
2022-08-05T17:03:54.980Z,1.80
2022-08-05T17:07:01.150Z,2.10
2022-08-05T17:10:11.029Z,3.33
2022-08-05T17:13:16.928Z,2.92
2022-08-05T17:16:30.129Z,2.12
2022-08-05T17:19:36.369Z,3.12
2022-08-05T17:22:39.170Z,3.50
2022-08-05T17:25:42.228Z,2.03
2022-08-05T17:28:47.134Z,2.83
2022-08-05T17:31:58.509Z,3.08
2022-08-05T17:35:02.215Z,2.08
2022-08-05T17:38:09.452Z,2.80
2022-08-05T17:42:16.854Z,3.03
2022-08-05T17:44:35.962Z,2.65
2022-08-05T17:47:39.066Z,2.10
2022-08-05T17:50:42.817Z,2.55
2022-08-05T17:53:45.931Z,2.15
2022-08-05T17:56:57.299Z,2.35
2022-08-05T18:00:03.483Z,2.50
2022-08-05T18:03:09.085Z,2.05
2022-08-05T18:06:15.526Z,2.33
2022-08-05T18:09:18.569Z,2.25
2022-08-05T18:12:24.526Z,2.20
2022-08-05T18:15:27.837Z,2.50
2022-08-05T18:18:34.056Z,2.37
2022-08-05T18:22:09.438Z,2.50
2022-08-05T18:25:06.538Z,2.30
2022-08-05T18:28:10.029Z,2.62
2022-08-05T18:31:12.719Z,2.47
2022-08-05T18:34:21.727Z,2.53
2022-08-05T18:37:34.184Z,2.58
2022-08-05T18:41:55.881Z,2.50
2022-08-05T18:44:05.440Z,2.95
2022-08-05T18:47:09.449Z,3.12
2022-08-05T18:50:45.069Z,2.80
2022-08-05T18:53:50.842Z,3.22
2022-08-05T18:56:53.653Z,2.95
2022-08-05T19:00:03.276Z,3.20
2022-08-05T19:03:06.907Z,3.55
2022-08-05T19:06:18.909Z,3.05
2022-08-05T19:09:25.300Z,3.30
2022-08-05T19:12:32.221Z,3.05
2022-08-05T19:15:57.194Z,3.22
2022-08-05T19:18:57.960Z,3.05
2022-08-05T19:22:00.493Z,3.22
2022-08-05T19:25:04.207Z,3.28
2022-08-05T19:28:06.853Z,2.95
2022-08-05T19:31:17.750Z,3.40
2022-08-05T19:34:22.591Z,3.37
2022-08-05T19:37:35.073Z,3.47
2022-08-05T19:40:49.053Z,3.58
2022-08-05T19:44:05.423Z,3.47
2022-08-05T19:47:16.476Z,3.42
2022-08-05T19:50:20.093Z,3.97
2022-08-05T19:54:04.524Z,3.60
2022-08-05T19:56:45.749Z,3.45
2022-08-05T19:59:55.953Z,3.40
2022-08-05T20:03:13.915Z,3.80
2022-08-05T20:06:29.132Z,3.60
2022-08-05T20:09:54.080Z,3.65
2022-08-05T20:12:55.283Z,3.78
2022-08-05T20:15:58.074Z,3.62
2022-08-05T20:19:03.358Z,3.72
2022-08-05T20:22:05.888Z,3.50
2022-08-05T20:25:12.505Z,3.60
2022-08-05T20:28:15.072Z,3.40
2022-08-05T20:31:22.876Z,3.85
2022-08-05T20:34:31.057Z,3.90
2022-08-05T20:38:06.208Z,3.58
2022-08-05T20:40:56.997Z,4.12
2022-08-05T20:44:05.185Z,3.65
2022-08-05T20:47:20.596Z,3.97
2022-08-05T20:50:34.700Z,4.10
2022-08-05T20:53:40.934Z,3.80
2022-08-05T20:56:43.954Z,3.62
2022-08-05T21:00:19.550Z,3.70
2022-08-05T21:03:09.621Z,3.87
2022-08-05T21:06:27.531Z,4.07
2022-08-05T21:12:36.734Z,4.03
2022-08-05T21:15:41.931Z,4.28
2022-08-05T21:18:54.306Z,4.05
2022-08-05T21:21:58.283Z,4.40
2022-08-05T21:25:00.934Z,4.03
2022-08-05T21:28:04.010Z,4.07
2022-08-05T21:31:06.597Z,3.97
2022-08-05T21:34:10.454Z,3.87
2022-08-05T21:37:13.614Z,4.18
2022-08-05T21:40:16.782Z,3.67
2022-08-05T21:43:24.449Z,4.10
2022-08-05T21:46:28.557Z,4.10
2022-08-05T21:49:58.770Z,4.10
2022-08-05T21:52:58.812Z,4.30
2022-08-05T21:56:16.909Z,3.92
2022-08-05T21:59:25.106Z,4.20
2022-08-05T22:02:33.081Z,4.28
2022-08-05T22:05:48.869Z,4.40
2022-08-05T22:08:52.472Z,3.83
2022-08-05T22:11:55.828Z,3.78
2022-08-05T22:14:59.790Z,4.20
2022-08-05T22:18:03.149Z,3.83
2022-08-05T22:21:18.828Z,3.60
2022-08-05T22:24:52.413Z,3.53
2022-08-05T22:28:09.152Z,3.53
2022-08-05T22:31:13.066Z,3.47
2022-08-05T22:34:25.699Z,3.37
2022-08-05T22:37:59.013Z,3.50
2022-08-05T22:40:55.142Z,3.25
2022-08-05T22:43:59.361Z,3.33
2022-08-05T22:47:05.725Z,3.20
2022-08-05T22:50:22.903Z,3.45
2022-08-05T22:53:35.917Z,3.25
2022-08-05T22:56:40.098Z,3.10
2022-08-05T22:59:51.794Z,3.05
2022-08-05T23:02:57.127Z,3.40
2022-08-05T23:06:01.010Z,3.45
2022-08-05T23:09:27.308Z,3.12
2022-08-05T23:12:28.607Z,3.08
2022-08-05T23:15:35.227Z,3.17
2022-08-05T23:18:39.283Z,3.20
2022-08-05T23:21:48.382Z,3.75
2022-08-05T23:24:51.708Z,4.07
2022-08-05T23:28:00.249Z,3.42
2022-08-05T23:31:16.942Z,4.00
2022-08-05T23:34:24.557Z,3.70
2022-08-05T23:37:27.515Z,3.70
2022-08-05T23:40:39.797Z,3.65
2022-08-05T23:44:05.389Z,3.80
2022-08-05T23:47:15.119Z,4.18
2022-08-05T23:50:20.271Z,3.90
2022-08-05T23:53:23.355Z,4.10
2022-08-05T23:56:31.365Z,3.90
